createdAt,value
2022-11-02T00:01:28.120Z,0.70
2022-11-02T00:04:51.865Z,1.17
2022-11-02T00:08:15.626Z,0.90
2022-11-02T00:11:39.405Z,0.80
2022-11-02T00:15:02.872Z,0.80
2022-11-02T00:18:28.373Z,0.80
2022-11-02T00:21:52.064Z,0.80
2022-11-02T00:25:18.698Z,0.90
2022-11-02T00:28:42.544Z,0.83
2022-11-02T00:32:06.713Z,0.80
2022-11-02T00:35:31.883Z,0.80
2022-11-02T00:38:55.735Z,0.90
2022-11-02T00:42:19.545Z,0.90
2022-11-02T00:45:42.973Z,1.00
2022-11-02T00:49:06.461Z,0.80
2022-11-02T00:52:33.214Z,1.07
2022-11-02T00:55:56.870Z,1.50
2022-11-02T00:59:20.340Z,1.03
2022-11-02T01:02:44.250Z,1.00
2022-11-02T01:06:12.666Z,1.20
2022-11-02T01:09:37.993Z,0.90
2022-11-02T01:13:02.726Z,1.00
2022-11-02T01:16:26.565Z,0.83
2022-11-02T01:19:51.780Z,1.17
2022-11-02T01:23:15.530Z,0.90
2022-11-02T01:26:40.429Z,1.00
2022-11-02T01:30:05.185Z,0.80
2022-11-02T01:33:29.389Z,0.80
2022-11-02T01:36:53.163Z,0.90
2022-11-02T01:40:17.005Z,1.00
2022-11-02T01:43:45.692Z,0.73
2022-11-02T01:47:18.280Z,0.83
2022-11-02T01:50:42.814Z,1.00
2022-11-02T01:54:12.245Z,0.83
2022-11-02T01:57:38.396Z,0.77
2022-11-02T02:01:04.018Z,0.80
2022-11-02T02:04:29.181Z,0.93
2022-11-02T02:07:54.822Z,0.90
2022-11-02T02:11:31.793Z,1.23
2022-11-02T02:14:55.739Z,1.10
2022-11-02T02:18:29.409Z,1.50
2022-11-02T02:22:23.685Z,1.30
2022-11-02T02:26:12.856Z,1.20
2022-11-02T02:29:52.656Z,1.30
2022-11-02T02:33:23.466Z,1.10
2022-11-02T02:36:51.902Z,1.50
2022-11-02T02:40:21.591Z,1.17
2022-11-02T02:43:50.131Z,0.97
2022-11-02T02:47:19.460Z,1.20
2022-11-02T02:50:49.354Z,1.00
2022-11-02T02:54:17.868Z,1.00
2022-11-02T02:57:42.369Z,1.37
2022-11-02T03:01:07.716Z,1.20
2022-11-02T03:04:34.601Z,1.03
2022-11-02T03:08:02.393Z,1.00
2022-11-02T03:11:26.929Z,0.97
2022-11-02T03:15:03.966Z,1.00
2022-11-02T03:18:39.737Z,1.27
2022-11-02T03:22:12.665Z,1.00
2022-11-02T03:25:50.508Z,1.10
2022-11-02T03:29:20.194Z,1.17
2022-11-02T03:32:54.312Z,1.03
2022-11-02T03:36:23.968Z,1.30
2022-11-02T03:39:52.187Z,1.20
2022-11-02T03:43:17.819Z,1.20
2022-11-02T03:46:44.963Z,1.10
2022-11-02T03:50:16.057Z,1.10
2022-11-02T03:53:49.315Z,1.10
2022-11-02T03:57:21.639Z,1.37
2022-11-02T04:00:52.830Z,0.90
2022-11-02T04:04:17.300Z,0.87
2022-11-02T04:08:07.918Z,1.30
2022-11-02T04:11:50.574Z,1.33
2022-11-02T04:15:17.140Z,1.40
2022-11-02T04:18:58.292Z,1.00
2022-11-02T04:22:45.708Z,1.17
2022-11-02T04:26:11.753Z,0.90
2022-11-02T04:29:39.836Z,1.03
2022-11-02T04:33:30.635Z,1.20
2022-11-02T04:37:26.618Z,1.20
2022-11-02T04:41:09.473Z,1.10
2022-11-02T04:44:33.247Z,1.43
2022-11-02T04:48:07.701Z,1.47
2022-11-02T04:51:32.663Z,1.53
2022-11-02T04:54:56.640Z,1.43
2022-11-02T04:58:20.154Z,1.50
2022-11-02T05:01:44.420Z,1.00
2022-11-02T05:05:12.464Z,1.23
2022-11-02T05:08:37.946Z,1.20
2022-11-02T05:12:04.968Z,1.03
2022-11-02T05:15:30.464Z,0.90
2022-11-02T05:18:58.446Z,1.20
2022-11-02T05:22:24.302Z,1.13
2022-11-02T05:25:54.890Z,0.87
2022-11-02T05:29:19.877Z,0.83
2022-11-02T05:32:44.938Z,1.00
2022-11-02T05:36:10.183Z,1.00
2022-11-02T05:39:38.220Z,0.80
2022-11-02T05:43:02.785Z,0.80
2022-11-02T05:46:27.592Z,0.90
2022-11-02T05:49:51.357Z,0.80
2022-11-02T05:53:15.180Z,1.20
2022-11-02T05:56:40.309Z,0.80
2022-11-02T06:00:05.130Z,0.80
2022-11-02T06:03:37.090Z,0.90
2022-11-02T06:07:00.528Z,0.87
2022-11-02T06:10:24.287Z,1.00
2022-11-02T06:13:51.819Z,0.80
2022-11-02T06:17:15.495Z,0.80
2022-11-02T06:20:39.244Z,0.90
2022-11-02T06:24:02.683Z,0.97
2022-11-02T06:27:26.417Z,1.07
2022-11-02T06:30:51.951Z,0.90
2022-11-02T06:34:15.780Z,1.03
2022-11-02T06:37:39.630Z,1.10
2022-11-02T06:41:06.641Z,1.00
2022-11-02T06:44:31.735Z,1.00
2022-11-02T06:47:57.041Z,1.10
2022-11-02T06:51:20.435Z,1.20
2022-11-02T06:54:44.255Z,0.87
2022-11-02T06:58:08.251Z,1.00
2022-11-02T07:01:32.095Z,0.90
2022-11-02T07:04:57.075Z,1.00
2022-11-02T07:08:22.401Z,1.03
2022-11-02T07:11:46.129Z,1.10
2022-11-02T07:15:10.817Z,1.13
2022-11-02T07:18:34.572Z,0.90
2022-11-02T07:21:59.439Z,0.90
2022-11-02T07:25:25.358Z,0.83
2022-11-02T07:28:49.187Z,0.80
2022-11-02T07:32:13.025Z,1.00
2022-11-02T07:35:36.884Z,1.10
2022-11-02T07:39:02.853Z,1.30
2022-11-02T07:42:26.601Z,1.20
2022-11-02T07:45:53.455Z,1.40
2022-11-02T07:49:21.306Z,1.17
2022-11-02T07:52:47.896Z,1.57
2022-11-02T07:56:13.094Z,1.50
2022-11-02T07:59:37.097Z,1.67
2022-11-02T08:03:03.327Z,1.37
2022-11-02T08:06:27.530Z,1.60
2022-11-02T08:09:51.278Z,1.03
2022-11-02T08:13:18.659Z,1.00
2022-11-02T08:16:42.434Z,0.93
2022-11-02T08:20:07.710Z,0.93
2022-11-02T08:23:31.270Z,0.97
2022-11-02T08:26:55.152Z,1.03
2022-11-02T08:30:20.290Z,0.93
2022-11-02T08:33:44.362Z,0.93
2022-11-02T08:37:09.561Z,1.07
2022-11-02T08:40:33.898Z,1.03
2022-11-02T08:43:59.010Z,1.23
2022-11-02T08:47:24.396Z,0.97
2022-11-02T08:50:50.322Z,1.00
2022-11-02T08:54:14.278Z,1.07
2022-11-02T08:57:46.809Z,1.00
2022-11-02T09:01:10.595Z,1.07
2022-11-02T09:04:35.769Z,1.30
2022-11-02T09:08:02.338Z,0.80
2022-11-02T09:11:26.264Z,0.90
2022-11-02T09:14:49.989Z,0.97
2022-11-02T09:18:13.844Z,0.97
2022-11-02T09:21:38.746Z,1.00
2022-11-02T09:25:03.123Z,0.87
2022-11-02T09:28:26.889Z,0.80
2022-11-02T09:31:50.623Z,1.00
2022-11-02T09:35:14.519Z,1.03
2022-11-02T09:38:39.261Z,0.90
2022-11-02T09:42:08.900Z,1.20
2022-11-02T09:45:37.038Z,1.00
2022-11-02T09:49:04.365Z,1.20
2022-11-02T09:52:34.530Z,1.20
2022-11-02T09:56:01.759Z,0.80
2022-11-02T09:59:27.805Z,1.03
2022-11-02T10:03:03.102Z,1.03
2022-11-02T10:06:27.868Z,0.97
2022-11-02T10:09:57.640Z,1.10
2022-11-02T10:13:35.366Z,1.40
2022-11-02T10:17:05.709Z,1.10
2022-11-02T10:20:33.744Z,1.03
2022-11-02T10:23:59.788Z,1.40
2022-11-02T10:27:27.474Z,1.47
2022-11-02T10:30:55.558Z,0.97
2022-11-02T10:34:25.845Z,1.17
2022-11-02T10:38:09.288Z,1.33
2022-11-02T10:41:54.162Z,1.13
2022-11-02T10:45:57.178Z,1.10
2022-11-02T10:49:45.449Z,1.30
2022-11-02T10:53:39.445Z,0.90
2022-11-02T10:56:59.734Z,1.00
2022-11-02T11:00:25.895Z,1.00
2022-11-02T11:04:01.835Z,1.30
2022-11-02T11:07:28.803Z,1.40
2022-11-02T11:10:52.436Z,1.30
2022-11-02T11:21:58.395Z,1.10
2022-11-02T11:25:28.287Z,1.23
2022-11-02T11:28:56.867Z,1.30
2022-11-02T11:32:28.661Z,1.43
2022-11-02T11:35:53.887Z,1.20
2022-11-02T11:39:27.045Z,1.50
2022-11-02T11:42:57.499Z,1.33
2022-11-02T11:46:39.549Z,1.70
2022-11-02T11:50:14.289Z,1.10
2022-11-02T11:54:06.966Z,1.13
2022-11-02T11:57:32.972Z,0.90
2022-11-02T12:01:20.001Z,1.37
2022-11-02T12:04:43.921Z,0.90
2022-11-02T12:08:23.088Z,1.30
2022-11-02T12:11:58.456Z,1.57
2022-11-02T12:15:43.415Z,1.33
2022-11-02T12:19:31.221Z,1.47
2022-11-02T12:23:07.700Z,1.40
2022-11-02T12:26:49.970Z,1.30
2022-11-02T12:30:18.107Z,1.17
2022-11-02T12:34:01.540Z,1.47
2022-11-02T12:37:41.247Z,1.30
2022-11-02T12:41:08.750Z,1.10
2022-11-02T12:45:01.278Z,1.27
2022-11-02T12:48:33.174Z,1.20
2022-11-02T12:52:05.081Z,1.60
2022-11-02T12:55:38.502Z,1.13
2022-11-02T12:59:02.695Z,1.70
2022-11-02T13:02:30.287Z,1.10
2022-11-02T13:06:02.294Z,1.20
2022-11-02T13:09:31.832Z,1.20
2022-11-02T13:13:00.762Z,1.00
2022-11-02T13:16:34.061Z,1.13
2022-11-02T13:20:01.397Z,0.90
2022-11-02T13:23:35.541Z,1.20
2022-11-02T13:27:22.070Z,0.90
2022-11-02T13:30:52.519Z,1.00
2022-11-02T13:34:20.836Z,1.00
2022-11-02T13:37:50.685Z,0.97
2022-11-02T13:41:27.653Z,1.10
2022-11-02T13:45:19.506Z,1.00
2022-11-02T13:48:57.469Z,1.10
2022-11-02T13:52:26.638Z,1.20
2022-11-02T13:55:56.767Z,1.23
2022-11-02T13:59:24.649Z,1.60
2022-11-02T14:02:48.702Z,0.80
2022-11-02T14:06:16.305Z,0.80
2022-11-02T14:09:44.612Z,0.87
2022-11-02T14:13:14.590Z,1.00
2022-11-02T14:17:10.948Z,1.10
2022-11-02T14:20:37.001Z,0.93
2022-11-02T14:24:02.153Z,0.93
2022-11-02T14:27:32.223Z,0.87
2022-11-02T14:31:02.060Z,0.83
2022-11-02T14:34:37.640Z,1.07
2022-11-02T14:38:31.998Z,0.93
2022-11-02T14:42:23.366Z,0.90
2022-11-02T14:45:58.342Z,0.80
2022-11-02T14:49:27.707Z,1.00
2022-11-02T14:53:05.287Z,0.90
2022-11-02T14:56:48.711Z,0.83
2022-11-02T15:00:22.050Z,1.03
2022-11-02T15:03:48.243Z,0.70
2022-11-02T15:07:21.875Z,0.87
2022-11-02T15:10:47.367Z,1.00
2022-11-02T15:14:47.858Z,1.07
2022-11-02T15:18:35.599Z,0.80
2022-11-02T15:22:36.226Z,0.80
2022-11-02T15:26:01.416Z,0.90
2022-11-02T15:29:36.921Z,0.97
2022-11-02T15:33:05.008Z,1.00
2022-11-02T15:36:34.236Z,1.07
2022-11-02T15:40:00.174Z,0.90
2022-11-02T15:47:30.022Z,0.70
2022-11-02T15:51:01.067Z,0.77
2022-11-02T15:54:46.255Z,0.87
2022-11-02T15:58:22.249Z,0.83
2022-11-02T16:01:45.891Z,1.10
2022-11-02T16:05:21.158Z,1.17
2022-11-02T16:08:45.231Z,1.20
2022-11-02T16:12:18.746Z,1.10
2022-11-02T16:15:43.466Z,1.10
2022-11-02T16:19:06.979Z,1.00
2022-11-02T16:22:30.834Z,0.97
2022-11-02T16:25:56.336Z,1.07
2022-11-02T16:29:31.766Z,1.07
2022-11-02T16:33:02.496Z,1.00
2022-11-02T16:36:28.842Z,0.90
2022-11-02T16:39:53.132Z,1.03
2022-11-02T16:43:17.444Z,1.00
2022-11-02T16:46:51.493Z,1.00
2022-11-02T16:50:23.349Z,1.17
2022-11-02T16:53:47.559Z,1.00
2022-11-02T16:57:20.142Z,1.07
2022-11-02T17:00:59.015Z,0.90
2022-11-02T17:04:26.514Z,0.87
2022-11-02T17:08:01.482Z,0.97
2022-11-02T17:11:25.346Z,1.00
2022-11-02T17:14:51.249Z,0.90
2022-11-02T17:18:28.369Z,1.27
2022-11-02T17:22:11.605Z,0.87
2022-11-02T17:25:36.752Z,0.90
2022-11-02T17:29:02.331Z,1.00
2022-11-02T17:32:26.989Z,1.00
2022-11-02T17:35:53.308Z,1.10
2022-11-02T17:39:20.659Z,1.23
2022-11-02T17:42:59.655Z,1.83
2022-11-02T17:46:23.410Z,1.30
2022-11-02T17:49:47.353Z,1.10
2022-11-02T17:53:14.040Z,1.50
2022-11-02T17:56:39.401Z,1.10
2022-11-02T18:00:03.280Z,1.00
2022-11-02T18:03:35.577Z,1.10
2022-11-02T18:06:59.499Z,1.10
2022-11-02T18:10:25.803Z,1.10
2022-11-02T18:13:50.588Z,1.13
2022-11-02T18:17:14.418Z,1.23
2022-11-02T18:20:41.874Z,0.90
2022-11-02T18:24:06.654Z,1.00
2022-11-02T18:27:30.572Z,1.00
2022-11-02T18:30:55.723Z,1.50
2022-11-02T18:34:19.536Z,1.20
2022-11-02T18:37:43.796Z,1.07
2022-11-02T18:41:22.679Z,0.90
2022-11-02T18:44:46.443Z,1.20
2022-11-02T18:48:11.554Z,1.30
2022-11-02T18:51:35.313Z,1.40
2022-11-02T18:55:03.065Z,1.30
2022-11-02T18:58:26.898Z,1.27
2022-11-02T19:01:50.367Z,1.50
2022-11-02T19:05:32.964Z,1.17
2022-11-02T19:09:14.182Z,1.37
2022-11-02T19:12:38.279Z,1.20
2022-11-02T19:16:02.038Z,1.40
2022-11-02T19:19:25.904Z,1.57
2022-11-02T19:22:55.262Z,2.87
2022-11-02T19:26:19.135Z,2.37
2022-11-02T19:29:43.259Z,2.40
2022-11-02T19:33:07.067Z,2.27
2022-11-02T19:36:31.072Z,1.83
2022-11-02T19:39:56.338Z,1.93
2022-11-02T19:43:20.146Z,2.10
2022-11-02T19:50:08.138Z,2.20
2022-11-02T19:53:31.935Z,2.00
2022-11-02T19:56:57.137Z,2.03
2022-11-02T20:00:21.674Z,1.83
2022-11-02T20:03:47.138Z,1.90
2022-11-02T20:07:10.937Z,2.30
2022-11-02T20:10:34.727Z,1.93
2022-11-02T20:14:01.591Z,1.63
2022-11-02T20:17:31.930Z,1.93
2022-11-02T20:21:04.459Z,1.53
2022-11-02T20:24:28.245Z,1.80
2022-11-02T20:27:52.116Z,2.23
2022-11-02T20:31:19.289Z,1.50
2022-11-02T20:34:42.743Z,1.87
2022-11-02T20:38:06.870Z,1.63
2022-11-02T20:41:30.978Z,1.53
2022-11-02T20:44:54.730Z,1.63
2022-11-02T20:51:47.519Z,1.63
2022-11-02T20:55:11.951Z,1.10
2022-11-02T20:58:37.453Z,1.40
2022-11-02T21:02:03.831Z,1.60
2022-11-02T21:05:29.367Z,1.37
2022-11-02T21:08:53.197Z,1.47
2022-11-02T21:12:46.384Z,1.50
2022-11-02T21:16:10.565Z,1.40
2022-11-02T21:19:34.482Z,1.80
2022-11-02T21:23:00.602Z,1.83
2022-11-02T21:26:24.542Z,1.97
2022-11-02T21:29:48.469Z,1.30
2022-11-02T21:33:12.299Z,1.20
2022-11-02T21:36:35.723Z,1.43
2022-11-02T21:40:00.600Z,1.80
2022-11-02T21:43:24.207Z,1.80
2022-11-02T21:46:47.691Z,1.70
2022-11-02T21:50:13.091Z,1.40
2022-11-02T21:53:39.843Z,1.53
2022-11-02T21:57:05.068Z,1.43
2022-11-02T22:00:48.886Z,1.70
2022-11-02T22:04:14.091Z,1.10
2022-11-02T22:07:57.915Z,1.50
2022-11-02T22:11:28.074Z,1.50
2022-11-02T22:14:52.910Z,1.70
2022-11-02T22:18:16.348Z,1.50
2022-11-02T22:21:42.089Z,1.83
2022-11-02T22:25:06.564Z,1.90
2022-11-02T22:28:31.831Z,1.60
2022-11-02T22:31:57.079Z,1.77
2022-11-02T22:35:20.538Z,1.60
2022-11-02T22:38:53.449Z,1.57
2022-11-02T22:42:17.263Z,1.53
2022-11-02T22:45:41.124Z,1.67
2022-11-02T22:49:07.121Z,1.30
2022-11-02T22:52:30.877Z,1.27
2022-11-02T22:55:59.150Z,1.60
2022-11-02T22:59:22.917Z,2.20
2022-11-02T23:02:46.314Z,1.60
2022-11-02T23:06:12.764Z,1.40
2022-11-02T23:09:36.193Z,1.53
2022-11-02T23:12:59.645Z,1.30
2022-11-02T23:16:25.461Z,1.60
2022-11-02T23:19:49.230Z,1.90
2022-11-02T23:23:31.512Z,1.87
2022-11-02T23:26:56.137Z,2.23
2022-11-02T23:30:33.806Z,1.37
2022-11-02T23:33:57.818Z,1.30
2022-11-02T23:37:20.582Z,1.30
2022-11-02T23:40:45.699Z,1.60
2022-11-02T23:44:12.558Z,1.57
2022-11-02T23:47:54.013Z,1.27
2022-11-02T23:51:35.302Z,1.40
2022-11-02T23:55:16.604Z,1.30
2022-11-02T23:58:41.496Z,1.10
